Time;durP1;ratioP1;P1;durP2;ratioP2;P2;SDS_P1;SDS_P2;PMS_P1;PMS_P2;Temp;Humidity;BMP_temperature;BMP_pressure;BME280_temperature;BME280_humidity;BME280_pressure;Samples;Min_cycle;Max_cycle;Signal;HPM_P1;HPM_P2
2022/07/03 00:01:28;;;;;;;8.35;5.28;;;;;;;19.29;70.27;99111.75;4364396;32;20105;-71
2022/07/03 00:03:55;;;;;;;7.65;4.87;;;;;;;19.23;70.93;99090.41;4364242;32;20103;-70
2022/07/03 00:06:22;;;;;;;8.48;5.43;;;;;;;19.26;71.03;99106.00;4364340;32;20091;-70
2022/07/03 00:08:50;;;;;;;6.18;4.65;;;;;;;19.27;70.99;99108.47;4350954;32;20462;-70
2022/07/03 00:11:17;;;;;;;7.18;4.65;;;;;;;19.28;71.10;99111.94;4350998;32;20078;-71
2022/07/03 00:13:44;;;;;;;7.90;5.22;;;;;;;19.30;71.45;99117.91;4364122;32;20111;-70
2022/07/03 00:16:11;;;;;;;7.80;5.53;;;;;;;19.28;71.67;99109.28;4364290;32;20086;-70
2022/07/03 00:18:39;;;;;;;8.13;5.53;;;;;;;19.28;71.88;99104.78;4364173;32;20079;-70
2022/07/03 00:21:09;;;;;;;9.57;5.10;;;;;;;19.24;72.22;99103.53;4364165;32;20563;-70
2022/07/03 00:23:44;;;;;;;8.80;5.47;;;;;;;19.19;72.55;99105.91;4364007;32;20095;-70
2022/07/03 00:26:13;;;;;;;8.93;5.97;;;;;;;19.20;72.81;99096.94;4350952;32;20094;-71
2022/07/03 00:28:41;;;;;;;6.20;4.93;;;;;;;19.22;72.88;99099.41;4364201;32;20099;-70
2022/07/03 00:31:10;;;;;;;9.93;5.10;;;;;;;19.15;73.40;99097.50;4350825;32;20184;-70
2022/07/03 00:33:38;;;;;;;6.72;5.30;;;;;;;19.10;73.84;99096.41;4364433;32;20154;-71
2022/07/03 00:36:05;;;;;;;8.43;5.15;;;;;;;19.13;74.09;99096.84;4364293;32;20161;-70
2022/07/03 00:38:33;;;;;;;9.77;6.10;;;;;;;19.12;73.94;99092.56;4364248;32;20413;-71
2022/07/03 00:41:03;;;;;;;7.72;5.20;;;;;;;19.06;74.66;99106.56;4364019;32;20117;-70
2022/07/03 00:43:30;;;;;;;6.30;4.95;;;;;;;19.03;74.89;99100.78;4364008;32;20098;-70
2022/07/03 00:46:06;;;;;;;6.45;5.22;;;;;;;19.06;74.76;99101.25;4363868;32;20502;-70
2022/07/03 00:48:37;;;;;;;8.50;5.45;;;;;;;18.96;75.16;99096.22;4364019;32;20551;-71
2022/07/03 00:51:05;;;;;;;7.68;5.55;;;;;;;18.92;75.48;99097.56;4363833;32;20080;-71
2022/07/03 00:53:33;;;;;;;7.75;5.80;;;;;;;18.88;75.98;99098.97;4350468;32;20166;-70
2022/07/03 00:56:04;;;;;;;7.85;5.35;;;;;;;18.86;76.29;99105.47;4350607;32;20133;-71
2022/07/03 00:58:34;;;;;;;8.35;5.47;;;;;;;18.78;76.62;99095.72;4349901;32;459512;-70
2022/07/03 01:01:02;;;;;;;7.20;5.75;;;;;;;18.74;76.89;99097.94;4363868;32;20075;-71
2022/07/03 01:03:33;;;;;;;8.18;5.80;;;;;;;18.77;77.16;99091.41;4363714;32;20160;-70
2022/07/03 01:06:03;;;;;;;9.50;5.47;;;;;;;18.77;77.23;99081.63;4350569;32;20174;-70
2022/07/03 01:08:50;;;;;;;7.05;5.07;;;;;;;18.81;77.40;99082.09;4363638;32;20156;-70
2022/07/03 01:11:33;;;;;;;7.70;5.82;;;;;;;18.74;77.53;99087.31;4350227;32;20101;-70
2022/07/03 01:14:20;;;;;;;7.35;5.28;;;;;;;18.74;77.56;99084.66;4363538;32;20122;-70
2022/07/03 01:17:03;;;;;;;8.13;6.07;;;;;;;18.65;77.86;99085.72;4363590;32;20436;-70
2022/07/03 01:19:42;;;;;;;7.40;5.85;;;;;;;18.66;78.33;99089.22;4363535;32;20374;-70
2022/07/03 01:22:17;;;;;;;6.15;5.22;;;;;;;18.55;78.78;99088.66;4363551;32;20071;-70
2022/07/03 01:24:53;;;;;;;7.45;5.78;;;;;;;18.51;79.26;99094.50;4363849;32;20437;-71
2022/07/03 01:27:39;;;;;;;7.50;5.62;;;;;;;18.40;80.17;99080.66;4350236;32;20104;-71
2022/07/03 01:30:10;;;;;;;10.85;6.03;;;;;;;18.48;80.12;99087.72;4363377;32;20087;-70
2022/07/03 01:32:45;;;;;;;8.23;5.85;;;;;;;18.51;80.75;99078.59;4363434;32;20098;-71
2022/07/03 01:35:20;;;;;;;8.38;5.97;;;;;;;18.59;80.27;99076.69;4363656;32;20084;-70
2022/07/03 01:37:48;;;;;;;8.40;5.78;;;;;;;18.68;79.74;99084.53;4365266;32;20114;-70
2022/07/03 01:40:17;;;;;;;7.50;5.60;;;;;;;18.77;79.88;99076.34;4351869;32;20091;-70
2022/07/03 01:42:45;;;;;;;6.80;5.43;;;;;;;18.80;79.85;99075.12;4365390;32;20075;-70
2022/07/03 01:45:14;;;;;;;8.38;5.78;;;;;;;18.91;79.66;99066.75;4365222;32;20091;-71
2022/07/03 01:47:42;;;;;;;8.35;5.85;;;;;;;18.95;79.58;99068.00;4365187;32;20157;-70
2022/07/03 01:50:12;;;;;;;9.27;6.35;;;;;;;18.97;79.54;99067.84;4351821;32;20163;-70
2022/07/03 01:52:43;;;;;;;11.60;5.68;;;;;;;19.00;79.57;99072.78;4365241;32;20110;-71
2022/07/03 01:55:16;;;;;;;7.50;5.70;;;;;;;19.03;79.25;99072.41;4365174;32;20211;-70
2022/07/03 01:57:49;;;;;;;6.97;5.55;;;;;;;19.07;78.83;99071.03;4351848;32;20118;-70
2022/07/03 02:00:19;;;;;;;10.30;5.97;;;;;;;19.01;79.11;99060.31;4365158;32;20118;-71
2022/07/03 02:03:01;;;;;;;10.30;6.60;;;;;;;19.02;79.08;99067.28;4365039;32;20114;-70
2022/07/03 02:05:47;;;;;;;9.88;6.28;;;;;;;18.99;79.37;99067.66;4351809;32;20103;-71
2022/07/03 02:08:36;;;;;;;12.20;6.55;;;;;;;18.96;79.65;99063.53;4365428;32;20146;-70
2022/07/03 02:11:09;;;;;;;11.95;6.25;;;;;;;18.97;79.80;99068.66;4365102;32;20079;-71
2022/07/03 02:13:55;;;;;;;9.87;6.30;;;;;;;18.91;80.45;99080.03;4365009;32;20107;-70
2022/07/03 02:16:29;;;;;;;9.77;6.03;;;;;;;18.87;80.66;99070.75;4351585;32;20127;-70
2022/07/03 02:19:04;;;;;;;9.70;5.80;;;;;;;18.85;80.97;99079.88;4364899;32;20087;-70
2022/07/03 02:21:33;;;;;;;9.63;6.15;;;;;;;18.85;81.13;99077.22;4365060;32;20558;-71
2022/07/03 02:24:16;;;;;;;9.57;6.25;;;;;;;18.87;81.13;99077.91;4365006;32;20083;-70
2022/07/03 02:26:49;;;;;;;8.55;5.75;;;;;;;18.85;81.22;99072.78;4364845;32;20095;-70
2022/07/03 02:29:17;;;;;;;;;;;;;;;18.80;81.66;99080.44;4365341;32;20095;-70
2022/07/03 02:31:46;;;;;;;11.70;6.03;;;;;;;18.78;81.79;99071.84;4351626;32;20332;-70
2022/07/03 02:34:17;;;;;;;11.60;6.32;;;;;;;18.75;82.03;99078.31;4351735;32;20365;-70
2022/07/03 02:36:47;;;;;;;10.93;6.57;;;;;;;18.73;82.26;99084.84;4351445;32;20095;-71
2022/07/03 02:39:23;;;;;;;9.95;5.95;;;;;;;18.69;82.42;99081.72;4364873;32;20091;-70
2022/07/03 02:41:56;;;;;;;10.27;6.15;;;;;;;18.63;82.36;99085.09;4351578;32;20075;-70
2022/07/03 02:44:32;;;;;;;7.85;6.12;;;;;;;18.47;82.72;99079.94;4351620;32;20080;-70
2022/07/03 02:47:22;;;;;;;9.13;6.43;;;;;;;18.18;83.57;99095.63;4350470;32;20473;-70
2022/07/03 02:50:05;;;;;;;8.52;6.25;;;;;;;18.13;83.86;99090.00;4364868;32;20113;-70
2022/07/03 02:52:38;;;;;;;8.05;5.97;;;;;;;18.09;84.42;99088.72;4364975;32;20103;-71
2022/07/03 02:55:24;;;;;;;9.33;6.53;;;;;;;18.04;85.20;99081.28;4351545;32;20133;-71
2022/07/03 02:58:03;;;;;;;9.65;5.90;;;;;;;17.98;85.48;99079.34;4351342;32;20091;-70
2022/07/03 03:00:33;;;;;;;9.60;6.37;;;;;;;17.98;85.04;99075.88;4339276;32;20099;-70
2022/07/03 03:03:02;;;;;;;8.38;5.53;;;;;;;17.95;84.74;99076.25;4351496;32;20158;-71
2022/07/03 03:05:46;;;;;;;8.65;6.45;;;;;;;17.94;84.70;99080.72;4351325;32;20095;-70
2022/07/03 03:08:27;;;;;;;7.53;5.80;;;;;;;17.94;84.92;99085.19;4364724;32;20095;-70
2022/07/03 03:10:58;;;;;;;8.30;6.15;;;;;;;17.94;84.76;99086.03;4351294;32;20493;-71
2022/07/03 03:13:30;;;;;;;11.32;6.50;;;;;;;17.96;84.73;99080.56;4364487;32;20087;-70
2022/07/03 03:16:06;;;;;;;8.60;6.68;;;;;;;17.98;84.87;99081.19;4364557;32;20086;-70
2022/07/03 03:18:37;;;;;;;8.52;6.80;;;;;;;18.06;84.86;99079.31;4364626;32;20083;-71
2022/07/03 03:21:08;;;;;;;10.52;6.57;;;;;;;18.12;85.77;99076.94;4364578;32;20169;-70
2022/07/03 03:23:49;;;;;;;10.50;7.30;;;;;;;18.35;85.19;99068.94;4364837;32;20511;-71
2022/07/03 03:26:24;;;;;;;10.75;6.95;;;;;;;18.54;84.27;99079.03;4364927;32;20134;-70
2022/07/03 03:28:52;;;;;;;11.23;6.72;;;;;;;18.86;82.49;99074.41;4364603;32;20146;-70
2022/07/03 03:31:20;;;;;;;10.23;6.75;;;;;;;19.14;81.28;99071.13;4358742;32;20086;-70
2022/07/03 03:33:49;;;;;;;12.50;7.10;;;;;;;19.25;80.50;99070.63;4364611;32;20156;-70
2022/07/03 03:36:18;;;;;;;10.63;6.57;;;;;;;19.47;79.83;99070.69;4358370;32;20087;-71
2022/07/03 03:38:47;;;;;;;11.07;6.47;;;;;;;19.61;79.14;99069.00;4364559;32;20174;-70
2022/07/03 03:41:14;;;;;;;10.98;7.00;;;;;;;19.72;78.67;99065.84;4364522;32;20145;-70
2022/07/03 03:43:44;;;;;;;9.85;6.57;;;;;;;19.91;77.58;99061.78;4364322;32;20134;-71
2022/07/03 03:46:12;;;;;;;13.70;7.95;;;;;;;20.07;77.15;99058.00;4364605;32;20170;-70
2022/07/03 03:48:39;;;;;;;10.48;7.50;;;;;;;20.15;76.80;99063.22;4364747;32;20121;-70
2022/07/03 03:51:07;;;;;;;14.00;7.22;;;;;;;20.20;76.62;99066.09;4364447;32;20527;-70
2022/07/03 03:53:34;;;;;;;10.15;7.03;;;;;;;20.32;76.04;99069.06;4364501;32;20121;-70
2022/07/03 03:56:04;;;;;;;9.02;6.80;;;;;;;20.41;75.84;99084.88;4364392;32;20087;-71
2022/07/03 03:58:35;;;;;;;14.65;7.00;;;;;;;20.50;75.50;99083.72;4363971;32;20442;-70
2022/07/03 04:01:05;;;;;;;8.80;6.87;;;;;;;20.53;74.87;99081.50;4364504;32;20087;-71
2022/07/03 04:03:33;;;;;;;9.90;6.50;;;;;;;20.54;75.06;99085.78;4364427;32;20079;-71
2022/07/03 04:06:01;;;;;;;11.10;6.90;;;;;;;20.53;75.15;99086.00;4364251;32;20106;-71
2022/07/03 04:08:29;;;;;;;10.60;6.70;;;;;;;20.53;74.71;99084.16;4364319;32;20213;-71
2022/07/03 04:10:56;;;;;;;11.45;6.82;;;;;;;20.59;74.62;99085.25;4364260;32;20593;-71
2022/07/03 04:13:23;;;;;;;9.32;6.57;;;;;;;20.78;73.93;99086.41;4364190;32;20433;-70
2022/07/03 04:15:52;;;;;;;13.18;6.90;;;;;;;20.87;73.65;99095.88;4364341;32;20091;-71
2022/07/03 04:18:19;;;;;;;9.77;6.50;;;;;;;20.95;73.50;99091.41;4364155;32;20453;-70
2022/07/03 04:20:47;;;;;;;10.23;7.15;;;;;;;21.06;72.86;99080.19;4364266;32;20448;-71
2022/07/03 04:23:14;;;;;;;10.43;7.75;;;;;;;21.12;72.48;99075.94;4364362;32;20546;-70
2022/07/03 04:25:41;;;;;;;8.35;6.60;;;;;;;21.32;72.97;99079.50;4364186;32;20110;-70
2022/07/03 04:28:09;;;;;;;12.15;7.22;;;;;;;21.46;72.29;99083.03;4364202;32;20122;-71
2022/07/03 04:30:52;;;;;;;11.65;7.62;;;;;;;21.56;70.52;99070.19;4364230;32;20161;-70
2022/07/03 04:33:19;;;;;;;10.25;7.20;;;;;;;21.61;70.77;99072.25;4364185;32;20091;-71
2022/07/03 04:35:46;;;;;;;10.57;7.65;;;;;;;21.79;70.77;99075.16;4364132;32;20103;-70
2022/07/03 04:38:13;;;;;;;9.00;6.93;;;;;;;21.97;69.45;99063.09;4363923;32;20119;-70
2022/07/03 04:40:40;;;;;;;11.02;7.20;;;;;;;22.12;69.82;99063.69;4364249;32;20153;-71
2022/07/03 04:43:07;;;;;;;10.02;6.93;;;;;;;22.33;68.39;99069.88;4364031;32;20095;-70
2022/07/03 04:45:35;;;;;;;9.35;7.05;;;;;;;22.44;69.28;99065.78;4363984;32;20087;-71
2022/07/03 04:48:02;;;;;;;9.50;6.55;;;;;;;22.57;67.41;99067.59;4363931;32;20095;-71
2022/07/03 04:50:29;;;;;;;13.25;7.22;;;;;;;22.68;67.71;99067.78;4364007;32;20119;-71
2022/07/03 04:52:57;;;;;;;9.80;7.18;;;;;;;22.79;66.50;99063.66;4363946;32;20095;-71
2022/07/03 04:55:24;;;;;;;10.63;6.68;;;;;;;22.84;66.28;99061.16;4350304;32;20079;-71
2022/07/03 04:57:51;;;;;;;10.32;6.87;;;;;;;23.04;67.36;99060.28;4363798;32;20509;-71
2022/07/03 05:00:18;;;;;;;8.98;6.57;;;;;;;23.09;64.96;99055.19;4363825;32;20102;-71
2022/07/03 05:02:45;;;;;;;7.68;6.72;;;;;;;23.30;65.28;99053.22;4363922;32;20535;-71
2022/07/03 05:05:13;;;;;;;10.25;6.97;;;;;;;23.42;64.56;99056.84;4363704;32;20095;-71
2022/07/03 05:07:40;;;;;;;9.60;7.25;;;;;;;23.51;64.13;99052.91;4363687;32;20516;-71
2022/07/03 05:10:07;;;;;;;8.80;6.87;;;;;;;23.32;63.50;99056.53;4350347;32;20103;-71
2022/07/03 05:12:34;;;;;;;7.37;6.45;;;;;;;23.38;63.19;99050.31;4365741;32;20098;-71
2022/07/03 05:15:08;;;;;;;10.18;6.85;;;;;;;23.60;62.31;99047.31;4365371;32;20181;-71
2022/07/03 05:17:35;;;;;;;9.82;6.60;;;;;;;23.56;62.42;99046.94;4365521;32;20436;-71
2022/07/03 05:23:08;;;;;;;11.15;6.18;;;;;;;23.74;62.38;99038.19;4365471;32;20083;-71
2022/07/03 05:25:35;;;;;;;9.68;6.57;;;;;;;23.80;61.72;99048.00;4365510;32;20109;-71
2022/07/03 05:28:03;;;;;;;9.63;6.28;;;;;;;23.81;62.39;99044.28;4365387;32;20119;-71
2022/07/03 05:30:30;;;;;;;7.28;5.87;;;;;;;23.96;61.06;99040.50;4365438;32;20125;-71
2022/07/03 05:32:57;;;;;;;7.53;5.87;;;;;;;23.97;61.48;99045.66;4365531;32;20099;-71
2022/07/03 05:35:24;;;;;;;9.25;6.75;;;;;;;24.15;60.57;99050.25;4365209;32;20082;-71
2022/07/03 05:37:52;;;;;;;8.45;6.12;;;;;;;23.97;60.46;99047.47;4365313;32;20118;-70
2022/07/03 05:40:19;;;;;;;11.10;6.37;;;;;;;24.11;60.75;99051.72;4365367;32;20125;-71
2022/07/03 05:42:46;;;;;;;9.50;7.22;;;;;;;24.15;60.72;99050.25;4365250;32;20095;-71
2022/07/03 05:45:13;;;;;;;9.60;6.47;;;;;;;24.21;61.73;99049.38;4365339;32;20454;-71
2022/07/03 05:47:40;;;;;;;8.43;6.55;;;;;;;24.30;60.38;99065.16;4365262;32;20099;-70
2022/07/03 05:50:08;;;;;;;8.05;6.22;;;;;;;24.41;59.30;99061.75;4365071;32;20446;-70
2022/07/03 05:52:36;;;;;;;8.98;6.78;;;;;;;24.37;58.39;99060.56;4365263;32;20363;-71
2022/07/03 05:55:03;;;;;;;10.18;6.55;;;;;;;24.52;59.53;99070.94;4365216;32;20110;-71
2022/07/03 05:57:31;;;;;;;11.10;6.20;;;;;;;24.41;58.97;99065.25;4365089;32;20166;-71
2022/07/03 06:00:01;;;;;;;12.50;6.57;;;;;;;24.55;58.75;99065.13;4365097;32;20103;-71
2022/07/03 06:02:28;;;;;;;7.93;6.10;;;;;;;24.70;58.61;99067.50;4365156;32;20198;-71
2022/07/03 06:04:55;;;;;;;8.10;6.62;;;;;;;24.85;57.33;99072.50;4352033;32;20488;-71
2022/07/03 06:07:22;;;;;;;8.38;6.50;;;;;;;24.71;58.92;99079.81;4365135;32;20114;-71
2022/07/03 06:09:49;;;;;;;9.43;6.00;;;;;;;24.91;56.95;99082.31;4365207;32;20539;-71
2022/07/03 06:12:17;;;;;;;10.05;6.03;;;;;;;24.87;59.34;99079.25;4365256;32;20177;-71
2022/07/03 06:14:44;;;;;;;7.75;6.43;;;;;;;25.08;57.98;99085.22;4364949;32;20087;-71
2022/07/03 06:17:11;;;;;;;14.52;6.40;;;;;;;25.22;56.95;99088.53;4364990;32;20107;-71
2022/07/03 06:19:39;;;;;;;7.50;6.40;;;;;;;25.39;55.87;99091.47;4364929;32;20114;-71
2022/07/03 06:22:06;;;;;;;8.63;6.25;;;;;;;25.17;54.68;99099.13;4364999;32;20524;-71
2022/07/03 06:24:33;;;;;;;7.30;5.60;;;;;;;25.41;55.39;99084.03;4365040;32;20079;-71
2022/07/03 06:27:00;;;;;;;9.38;6.50;;;;;;;25.52;55.56;99088.59;4364942;32;20103;-71
2022/07/03 06:29:27;;;;;;;8.57;6.72;;;;;;;25.77;54.88;99088.47;4365024;32;20150;-71
2022/07/03 06:31:54;;;;;;;10.65;6.60;;;;;;;25.76;55.20;99086.03;4365055;32;20156;-71
2022/07/03 06:34:22;;;;;;;8.52;6.00;;;;;;;25.85;55.10;99085.44;4364918;32;20087;-71
2022/07/03 06:36:49;;;;;;;8.32;6.55;;;;;;;25.89;53.97;99074.25;4364923;32;20094;-71
2022/07/03 06:39:16;;;;;;;8.85;5.90;;;;;;;26.00;54.11;99082.38;4364835;32;20100;-71
2022/07/03 06:41:43;;;;;;;8.80;5.82;;;;;;;26.05;55.12;99076.31;4364862;32;20429;-70
2022/07/03 06:44:10;;;;;;;7.85;6.18;;;;;;;26.09;52.81;99079.37;4364792;32;20548;-71
2022/07/03 06:46:38;;;;;;;8.10;6.85;;;;;;;25.96;54.71;99075.78;4364833;32;20134;-71
2022/07/03 06:49:05;;;;;;;7.53;6.05;;;;;;;25.75;54.68;99077.13;4364884;32;20575;-71
2022/07/03 06:51:33;;;;;;;8.35;6.00;;;;;;;25.80;53.61;99071.06;4364857;32;20148;-71
2022/07/03 06:54:01;;;;;;;9.80;6.57;;;;;;;26.09;54.45;99079.37;4364761;32;20203;-70
2022/07/03 06:56:28;;;;;;;9.25;6.82;;;;;;;26.17;54.08;99079.03;4364804;32;20158;-71
2022/07/03 06:58:57;;;;;;;7.40;6.30;;;;;;;25.84;53.36;99070.41;4364817;32;20095;-70
2022/07/03 07:01:24;;;;;;;10.93;6.55;;;;;;;25.73;55.46;99073.06;4364688;32;20152;-70
2022/07/03 07:03:51;;;;;;;10.50;6.82;;;;;;;25.94;55.78;99069.84;4364748;32;20395;-71
2022/07/03 07:06:18;;;;;;;12.02;6.37;;;;;;;26.13;55.09;99075.16;4364628;32;20094;-71
2022/07/03 07:08:47;;;;;;;10.88;6.15;;;;;;;26.37;53.95;99071.47;4364820;32;20437;-71
2022/07/03 07:11:14;;;;;;;8.63;6.32;;;;;;;26.15;52.81;99062.34;4364736;32;20139;-71
2022/07/03 07:13:41;;;;;;;9.75;6.03;;;;;;;26.07;55.29;99068.03;4364527;32;20091;-70
2022/07/03 07:16:09;;;;;;;8.95;6.32;;;;;;;26.32;53.24;99068.63;4364667;32;20106;-71
2022/07/03 07:18:36;;;;;;;6.68;5.87;;;;;;;26.32;52.57;99070.50;4364587;32;20468;-71
2022/07/03 07:21:03;;;;;;;7.97;6.18;;;;;;;26.53;54.37;99069.94;4364731;32;20469;-71
2022/07/03 07:23:30;;;;;;;8.65;5.90;;;;;;;26.80;54.24;99068.63;4364602;32;20159;-71
2022/07/03 07:25:58;;;;;;;8.75;5.72;;;;;;;26.94;51.94;99077.28;4364333;32;20141;-72
2022/07/03 07:28:25;;;;;;;9.82;6.35;;;;;;;26.97;52.07;99077.63;4364592;32;20185;-71
2022/07/03 07:30:55;;;;;;;7.43;6.50;;;;;;;26.77;50.94;99069.94;4364643;32;20091;-71
2022/07/03 07:33:22;;;;;;;7.85;5.80;;;;;;;26.62;52.34;99070.41;4364008;32;20079;-71
2022/07/03 07:35:49;;;;;;;7.20;6.07;;;;;;;26.82;52.36;99063.87;4364476;32;20103;-71
2022/07/03 07:38:17;;;;;;;9.35;6.93;;;;;;;26.90;51.85;99069.69;4364465;32;20382;-71
2022/07/03 07:40:44;;;;;;;8.73;6.90;;;;;;;26.94;51.30;99075.41;4364547;32;20079;-71
2022/07/03 07:43:13;;;;;;;8.93;6.55;;;;;;;26.88;51.82;99073.66;4364526;32;20087;-71
2022/07/03 07:45:40;;;;;;;10.20;5.97;;;;;;;26.91;52.01;99067.81;4351397;32;20130;-71
2022/07/03 07:48:07;;;;;;;8.05;6.70;;;;;;;27.07;51.32;99072.47;4364370;32;20121;-71
2022/07/03 07:50:35;;;;;;;10.27;6.00;;;;;;;27.14;50.79;99071.50;4364399;32;20110;-71
2022/07/03 07:53:02;;;;;;;7.03;6.30;;;;;;;26.95;50.88;99077.06;4364412;32;20198;-71
2022/07/03 07:55:29;;;;;;;11.60;6.68;;;;;;;26.87;51.38;99080.09;4364383;32;20103;-71
2022/07/03 07:57:56;;;;;;;8.07;5.87;;;;;;;26.95;51.08;99081.59;4364455;32;20088;-71
2022/07/03 08:00:24;;;;;;;7.28;6.32;;;;;;;26.79;50.95;99085.84;4364390;32;20483;-71
2022/07/03 08:05:37;;;;;;;6.97;6.25;;;;;;;26.56;52.26;99082.09;4364384;32;20154;-71
2022/07/03 08:08:07;;;;;;;8.43;5.78;;;;;;;26.81;50.92;99081.03;4364231;32;20095;-71
2022/07/03 08:10:36;;;;;;;10.10;5.90;;;;;;;26.73;50.56;99084.91;4364256;32;20165;-71
2022/07/03 08:13:04;;;;;;;7.80;6.20;;;;;;;26.64;50.88;99084.41;4364192;32;20083;-71
2022/07/03 08:15:32;;;;;;;6.93;6.22;;;;;;;26.67;50.32;99078.59;4364325;32;20153;-71
2022/07/03 08:17:59;;;;;;;8.73;6.07;;;;;;;26.70;49.77;99080.81;4364585;32;20091;-71
2022/07/03 08:20:27;;;;;;;13.23;5.75;;;;;;;26.59;50.01;99086.16;4364099;32;20152;-71
2022/07/03 08:22:55;;;;;;;7.78;5.87;;;;;;;26.89;49.42;99078.00;4350895;32;20079;-71
2022/07/03 08:25:22;;;;;;;7.05;5.78;;;;;;;26.93;48.28;99084.53;4364469;32;20125;-71
2022/07/03 08:27:49;;;;;;;8.38;6.03;;;;;;;26.70;49.08;99088.06;4364148;32;20133;-71
2022/07/03 08:30:17;;;;;;;7.53;5.90;;;;;;;26.84;48.58;99085.94;4364117;32;20095;-71
2022/07/03 08:32:46;;;;;;;7.62;5.53;;;;;;;27.15;48.39;99082.03;4364122;32;20148;-71
2022/07/03 08:35:13;;;;;;;8.45;5.60;;;;;;;27.46;47.66;99082.66;4364087;32;20818;-71
2022/07/03 08:37:42;;;;;;;9.98;6.03;;;;;;;27.35;47.08;99072.75;4364354;32;20536;-70
2022/07/03 08:40:10;;;;;;;7.75;5.45;;;;;;;27.21;46.30;99080.25;4363905;32;20099;-71
2022/07/03 08:42:55;;;;;;;7.03;5.82;;;;;;;27.45;46.21;99083.72;4363917;32;20113;-71
2022/07/03 08:45:24;;;;;;;6.90;5.60;;;;;;;27.29;46.28;99082.56;4364171;32;20083;-71
2022/07/03 08:47:54;;;;;;;7.85;6.25;;;;;;;27.42;45.44;99076.13;4363953;32;20158;-71
2022/07/03 08:50:21;;;;;;;8.38;6.32;;;;;;;27.55;46.74;99072.31;4363893;32;20090;-71
2022/07/03 08:52:49;;;;;;;7.65;5.00;;;;;;;27.75;46.61;99072.69;4350627;32;20083;-71
2022/07/03 08:55:18;;;;;;;9.63;5.60;;;;;;;27.91;44.31;99072.97;4363705;32;20154;-71
2022/07/03 08:57:47;;;;;;;7.87;5.00;;;;;;;27.98;44.16;99068.28;4363979;32;20091;-71
2022/07/03 09:00:17;;;;;;;8.27;5.22;;;;;;;27.98;43.16;99062.87;4350335;32;20638;-71
2022/07/03 09:02:47;;;;;;;6.32;5.28;;;;;;;27.63;43.92;99066.53;4363816;32;20269;-71
2022/07/03 09:05:15;;;;;;;6.28;5.53;;;;;;;27.75;42.90;99066.47;4363652;32;20106;-71
2022/07/03 09:07:44;;;;;;;6.25;5.65;;;;;;;28.10;42.43;99070.87;4363728;32;20375;-71
2022/07/03 09:10:14;;;;;;;5.45;3.92;;;;;;;28.37;45.57;99062.13;4363543;32;20631;-71
2022/07/03 09:12:43;;;;;;;7.90;4.57;;;;;;;27.86;39.34;99062.09;4363911;32;20444;-71
2022/07/03 09:15:11;;;;;;;5.22;4.72;;;;;;;28.15;38.47;99061.00;4350084;32;20436;-71
2022/07/03 09:17:38;;;;;;;6.80;5.53;;;;;;;28.63;39.79;99060.62;4363593;32;20091;-71
2022/07/03 09:20:07;;;;;;;7.72;5.72;;;;;;;28.88;40.58;99059.38;4363581;32;20105;-71
2022/07/03 09:22:36;;;;;;;6.60;5.57;;;;;;;28.60;41.80;99050.34;4363486;32;20106;-71
2022/07/03 09:25:03;;;;;;;5.95;4.93;;;;;;;28.82;41.96;99045.78;4363550;32;20091;-71
2022/07/03 09:27:31;;;;;;;5.37;4.87;;;;;;;29.27;41.00;99046.63;4363769;32;20483;-71
2022/07/03 09:30:03;;;;;;;5.53;3.97;;;;;;;29.54;39.60;99046.66;4363364;32;20113;-71
2022/07/03 09:32:37;;;;;;;4.65;3.85;;;;;;;29.45;37.97;99044.66;4363310;32;20102;-71
2022/07/03 09:35:24;;;;;;;3.83;3.40;;;;;;;29.60;37.10;99038.59;4363332;32;20365;-71
2022/07/03 09:38:02;;;;;;;4.50;3.92;;;;;;;28.99;36.34;99039.53;4363652;32;20142;-71
2022/07/03 09:40:52;;;;;;;4.43;3.97;;;;;;;29.09;36.21;99031.56;4363062;32;20079;-71
2022/07/03 09:43:29;;;;;;;6.35;4.28;;;;;;;29.46;36.17;99028.19;4363162;32;20106;-71
2022/07/03 09:46:02;;;;;;;7.00;4.70;;;;;;;29.64;36.67;99042.41;4363173;32;20126;-71
2022/07/03 09:48:38;;;;;;;5.18;4.45;;;;;;;29.74;38.09;99034.41;4349987;32;20161;-71
2022/07/03 09:51:17;;;;;;;9.82;4.55;;;;;;;29.16;39.76;99034.88;4363101;32;20519;-71
2022/07/03 09:54:06;;;;;;;5.03;4.50;;;;;;;29.23;40.29;99028.50;4362986;32;20087;-71
2022/07/03 09:56:36;;;;;;;5.75;4.25;;;;;;;29.04;39.41;99026.13;4363736;32;20461;-71
2022/07/03 09:59:10;;;;;;;5.22;4.25;;;;;;;29.33;39.69;99028.62;4365087;32;20138;-71
2022/07/03 10:01:41;;;;;;;5.75;4.53;;;;;;;29.29;38.70;99019.41;4365553;32;20102;-71
2022/07/03 10:04:28;;;;;;;4.90;4.40;;;;;;;29.58;38.48;99024.53;4365379;32;20098;-71
2022/07/03 10:06:58;;;;;;;8.85;4.45;;;;;;;29.89;39.59;99018.34;4365090;32;20095;-71
2022/07/03 10:09:33;;;;;;;4.75;3.60;;;;;;;30.43;39.46;99012.00;4365153;32;20127;-72
2022/07/03 10:12:02;;;;;;;7.07;4.00;;;;;;;30.71;35.38;99014.56;4351765;32;20483;-71
2022/07/03 10:14:31;;;;;;;4.70;4.07;;;;;;;30.32;35.68;99014.88;4364780;32;20133;-71
2022/07/03 10:17:00;;;;;;;6.62;4.43;;;;;;;30.22;36.54;99012.91;4365180;32;20113;-71
2022/07/03 10:19:29;;;;;;;5.65;3.62;;;;;;;30.17;37.25;99002.87;4365103;32;20092;-71
2022/07/03 10:22:00;;;;;;;6.10;4.22;;;;;;;30.32;35.58;99001.34;4364931;32;20441;-71
2022/07/03 10:24:29;;;;;;;4.65;3.95;;;;;;;30.48;35.44;99007.69;4365040;32;20125;-71
2022/07/03 10:26:58;;;;;;;8.20;3.70;;;;;;;30.23;35.91;99001.84;4364930;32;20122;-71
2022/07/03 10:29:26;;;;;;;8.27;3.78;;;;;;;30.76;36.27;99009.16;4364954;32;20492;-71
2022/07/03 10:31:57;;;;;;;4.32;3.65;;;;;;;30.87;36.15;99000.03;4365013;32;20134;-71
2022/07/03 10:34:27;;;;;;;6.10;3.72;;;;;;;30.78;35.55;98994.31;4365210;32;20087;-71
2022/07/03 10:37:01;;;;;;;6.43;4.20;;;;;;;30.62;35.57;99001.53;4364838;32;20107;-71
2022/07/03 10:39:33;;;;;;;6.15;4.05;;;;;;;30.62;36.31;98985.31;4365056;32;20087;-71
2022/07/03 10:45:03;;;;;;;4.68;3.78;;;;;;;30.31;36.54;98986.19;4353737;32;20083;-71
2022/07/03 10:47:40;;;;;;;6.10;3.58;;;;;;;30.65;35.84;98983.97;4364794;32;20087;-72
2022/07/03 10:50:13;;;;;;;7.60;3.78;;;;;;;31.15;36.88;98973.63;4364956;32;20118;-71
2022/07/03 10:52:41;;;;;;;7.03;4.60;;;;;;;31.65;36.54;98977.47;4364812;32;20445;-71
2022/07/03 10:55:09;;;;;;;4.75;3.78;;;;;;;31.70;34.96;98973.16;4364733;32;20485;-72
2022/07/03 10:57:37;;;;;;;6.07;3.75;;;;;;;31.62;35.37;98977.22;4364699;32;20162;-71
2022/07/03 11:00:08;;;;;;;4.00;3.60;;;;;;;31.54;34.75;98977.72;4351482;32;20129;-71
2022/07/03 11:02:39;;;;;;;6.15;3.97;;;;;;;31.35;35.35;98969.31;4364835;32;20137;-72
2022/07/03 11:05:17;;;;;;;8.15;4.30;;;;;;;31.08;36.05;98970.34;4351347;32;20095;-72
2022/07/03 11:07:50;;;;;;;6.20;3.70;;;;;;;31.10;36.62;98968.19;4363818;32;20146;-71
2022/07/03 11:10:18;;;;;;;4.75;4.25;;;;;;;30.64;37.04;98976.94;4364747;32;20113;-71
2022/07/03 11:12:57;;;;;;;7.50;4.07;;;;;;;30.43;36.36;98963.34;4364583;32;20456;-71
2022/07/03 11:15:36;;;;;;;7.80;3.90;;;;;;;30.81;36.56;98974.00;4364610;32;20099;-71
2022/07/03 11:18:19;;;;;;;5.70;4.62;;;;;;;30.88;37.47;98974.59;4364529;32;20441;-71
2022/07/03 11:20:49;;;;;;;14.98;4.32;;;;;;;30.93;37.11;98966.50;4364642;32;20102;-71
2022/07/03 11:23:20;;;;;;;4.53;3.70;;;;;;;31.11;37.03;98962.53;4364746;32;20105;-71
2022/07/03 11:25:50;;;;;;;5.07;4.37;;;;;;;31.30;36.33;98967.41;4364793;32;20097;-71
2022/07/03 11:28:32;;;;;;;7.60;4.20;;;;;;;31.47;36.17;98956.31;4364696;32;20418;-71
2022/07/03 11:31:22;;;;;;;9.43;4.03;;;;;;;31.78;36.19;98950.91;4364687;32;20091;-71
2022/07/03 11:33:53;;;;;;;10.63;4.43;;;;;;;32.17;36.09;98945.75;4364447;32;20113;-71
2022/07/03 11:36:28;;;;;;;5.10;4.28;;;;;;;32.38;35.80;98949.19;4364451;32;20151;-71
2022/07/03 11:38:59;;;;;;;6.12;4.07;;;;;;;32.64;34.42;98937.44;4364454;32;20079;-71
2022/07/03 11:41:28;;;;;;;7.60;4.10;;;;;;;32.32;34.39;98939.44;4364709;32;20130;-72
2022/07/03 11:43:57;;;;;;;7.72;4.43;;;;;;;32.47;34.47;98935.06;4364437;32;20113;-71
2022/07/03 11:46:27;;;;;;;7.22;4.43;;;;;;;32.69;34.47;98938.25;4364502;32;20134;-71
2022/07/03 11:49:08;;;;;;;6.62;3.90;;;;;;;32.77;33.66;98931.44;4364559;32;20099;-72
2022/07/03 11:51:37;;;;;;;5.62;4.22;;;;;;;32.76;33.85;98937.94;4364805;32;20402;-71
2022/07/03 11:54:04;;;;;;;6.50;4.22;;;;;;;32.63;33.67;98922.22;4364428;32;20113;-71
2022/07/03 11:56:35;;;;;;;7.65;4.30;;;;;;;32.97;34.22;98916.91;4350932;32;20594;-71